sensor_id;sensor_type;location;lat;lon;timestamp;temperature;humidity
5222;DHT22;2630;52.036;8.514;2023-03-20T00:00:05;8.70;99.90
5222;DHT22;2630;52.036;8.514;2023-03-20T00:02:33;8.60;99.90
5222;DHT22;2630;52.036;8.514;2023-03-20T00:04:59;8.60;99.90
5222;DHT22;2630;52.036;8.514;2023-03-20T00:07:24;8.50;99.90
5222;DHT22;2630;52.036;8.514;2023-03-20T00:09:50;8.50;99.90
5222;DHT22;2630;52.036;8.514;2023-03-20T00:12:22;8.40;99.90
5222;DHT22;2630;52.036;8.514;2023-03-20T00:14:48;8.20;99.90
5222;DHT22;2630;52.036;8.514;2023-03-20T00:17:18;8.20;99.90
5222;DHT22;2630;52.036;8.514;2023-03-20T00:22:11;8.00;99.90
5222;DHT22;2630;52.036;8.514;2023-03-20T00:27:03;7.90;99.90
5222;DHT22;2630;52.036;8.514;2023-03-20T00:29:31;7.90;99.90
5222;DHT22;2630;52.036;8.514;2023-03-20T00:31:57;8.00;99.90
5222;DHT22;2630;52.036;8.514;2023-03-20T00:34:26;8.00;99.90
5222;DHT22;2630;52.036;8.514;2023-03-20T00:36:53;7.90;99.90
5222;DHT22;2630;52.036;8.514;2023-03-20T00:39:20;7.80;99.90
5222;DHT22;2630;52.036;8.514;2023-03-20T00:41:54;7.90;99.90
5222;DHT22;2630;52.036;8.514;2023-03-20T00:46:54;8.00;99.90
5222;DHT22;2630;52.036;8.514;2023-03-20T00:49:27;8.00;99.90
5222;DHT22;2630;52.036;8.514;2023-03-20T00:51:54;8.00;99.90
5222;DHT22;2630;52.036;8.514;2023-03-20T00:54:19;8.10;99.90
5222;DHT22;2630;52.036;8.514;2023-03-20T00:59:20;8.10;99.90
5222;DHT22;2630;52.036;8.514;2023-03-20T01:01:46;8.10;99.90
5222;DHT22;2630;52.036;8.514;2023-03-20T01:06:40;8.10;99.90
5222;DHT22;2630;52.036;8.514;2023-03-20T01:09:06;8.00;99.90
5222;DHT22;2630;52.036;8.514;2023-03-20T01:11:31;8.00;99.90
5222;DHT22;2630;52.036;8.514;2023-03-20T01:13:57;7.90;99.90
5222;DHT22;2630;52.036;8.514;2023-03-20T01:16:24;7.90;99.90
5222;DHT22;2630;52.036;8.514;2023-03-20T01:18:51;8.00;99.90
5222;DHT22;2630;52.036;8.514;2023-03-20T01:21:18;8.00;99.90
5222;DHT22;2630;52.036;8.514;2023-03-20T01:26:20;8.00;99.90
5222;DHT22;2630;52.036;8.514;2023-03-20T01:28:47;8.00;99.90
5222;DHT22;2630;52.036;8.514;2023-03-20T01:31:15;8.10;99.90
5222;DHT22;2630;52.036;8.514;2023-03-20T01:33:41;8.20;99.90
5222;DHT22;2630;52.036;8.514;2023-03-20T01:36:09;8.30;99.90
5222;DHT22;2630;52.036;8.514;2023-03-20T01:38:36;8.40;99.90
5222;DHT22;2630;52.036;8.514;2023-03-20T01:41:15;8.50;99.90
5222;DHT22;2630;52.036;8.514;2023-03-20T01:51:16;8.60;99.90
5222;DHT22;2630;52.036;8.514;2023-03-20T01:53:43;8.60;99.90
5222;DHT22;2630;52.036;8.514;2023-03-20T01:56:12;8.70;99.90
5222;DHT22;2630;52.036;8.514;2023-03-20T01:58:43;8.80;99.90
5222;DHT22;2630;52.036;8.514;2023-03-20T02:01:11;8.80;99.90
5222;DHT22;2630;52.036;8.514;2023-03-20T02:03:39;8.90;99.90
5222;DHT22;2630;52.036;8.514;2023-03-20T02:06:07;9.00;99.90
5222;DHT22;2630;52.036;8.514;2023-03-20T02:08:39;9.10;99.90
5222;DHT22;2630;52.036;8.514;2023-03-20T02:11:06;9.10;99.90
5222;DHT22;2630;52.036;8.514;2023-03-20T02:13:33;9.30;99.90
5222;DHT22;2630;52.036;8.514;2023-03-20T02:16:16;9.30;99.90
5222;DHT22;2630;52.036;8.514;2023-03-20T02:18:43;9.40;99.90
5222;DHT22;2630;52.036;8.514;2023-03-20T02:24:51;9.50;99.90
5222;DHT22;2630;52.036;8.514;2023-03-20T02:27:14;9.60;99.90
5222;DHT22;2630;52.036;8.514;2023-03-20T02:41:30;9.70;99.90
5222;DHT22;2630;52.036;8.514;2023-03-20T02:49:47;9.60;99.90
5222;DHT22;2630;52.036;8.514;2023-03-20T02:54:53;9.60;99.90
5222;DHT22;2630;52.036;8.514;2023-03-20T03:00:28;9.50;99.90
5222;DHT22;2630;52.036;8.514;2023-03-20T03:05:55;9.40;99.90
5222;DHT22;2630;52.036;8.514;2023-03-20T03:10:58;9.30;99.90
5222;DHT22;2630;52.036;8.514;2023-03-20T03:13:28;9.30;99.90
5222;DHT22;2630;52.036;8.514;2023-03-20T03:15:59;9.30;99.90
5222;DHT22;2630;52.036;8.514;2023-03-20T03:18:28;9.20;99.90
5222;DHT22;2630;52.036;8.514;2023-03-20T03:23:35;9.10;99.90
5222;DHT22;2630;52.036;8.514;2023-03-20T03:26:05;9.20;99.90
5222;DHT22;2630;52.036;8.514;2023-03-20T03:28:35;9.10;99.90
5222;DHT22;2630;52.036;8.514;2023-03-20T03:31:10;9.20;99.90
5222;DHT22;2630;52.036;8.514;2023-03-20T03:33:38;9.10;99.90
5222;DHT22;2630;52.036;8.514;2023-03-20T03:38:55;9.10;99.90
5222;DHT22;2630;52.036;8.514;2023-03-20T03:41:33;9.10;99.90
5222;DHT22;2630;52.036;8.514;2023-03-20T03:44:21;9.10;99.90
5222;DHT22;2630;52.036;8.514;2023-03-20T03:47:01;9.10;99.90
5222;DHT22;2630;52.036;8.514;2023-03-20T03:49:32;9.00;99.90
5222;DHT22;2630;52.036;8.514;2023-03-20T03:52:02;9.00;99.90
5222;DHT22;2630;52.036;8.514;2023-03-20T03:54:36;9.00;99.90
5222;DHT22;2630;52.036;8.514;2023-03-20T03:57:04;9.00;99.90
5222;DHT22;2630;52.036;8.514;2023-03-20T03:59:36;9.00;99.90
5222;DHT22;2630;52.036;8.514;2023-03-20T04:02:04;9.00;99.90
5222;DHT22;2630;52.036;8.514;2023-03-20T04:04:31;9.20;99.90
5222;DHT22;2630;52.036;8.514;2023-03-20T04:09:24;9.10;99.90
5222;DHT22;2630;52.036;8.514;2023-03-20T04:11:52;9.10;99.90
5222;DHT22;2630;52.036;8.514;2023-03-20T04:14:18;9.20;99.90
5222;DHT22;2630;52.036;8.514;2023-03-20T04:16:44;9.20;99.90
5222;DHT22;2630;52.036;8.514;2023-03-20T04:19:10;9.20;99.90
5222;DHT22;2630;52.036;8.514;2023-03-20T04:21:36;9.30;99.90
5222;DHT22;2630;52.036;8.514;2023-03-20T04:24:02;9.20;99.90
5222;DHT22;2630;52.036;8.514;2023-03-20T04:26:27;9.20;99.90
5222;DHT22;2630;52.036;8.514;2023-03-20T04:28:53;9.10;99.90
5222;DHT22;2630;52.036;8.514;2023-03-20T04:31:19;9.10;99.90
5222;DHT22;2630;52.036;8.514;2023-03-20T04:33:45;9.00;99.90
5222;DHT22;2630;52.036;8.514;2023-03-20T04:36:12;9.00;99.90
5222;DHT22;2630;52.036;8.514;2023-03-20T04:38:37;9.00;99.90
5222;DHT22;2630;52.036;8.514;2023-03-20T04:43:30;9.00;99.90
5222;DHT22;2630;52.036;8.514;2023-03-20T04:48:22;9.10;99.90
5222;DHT22;2630;52.036;8.514;2023-03-20T04:55:41;9.10;99.90
5222;DHT22;2630;52.036;8.514;2023-03-20T05:00:32;9.00;99.90
5222;DHT22;2630;52.036;8.514;2023-03-20T05:02:58;8.90;99.90
5222;DHT22;2630;52.036;8.514;2023-03-20T05:05:24;8.90;99.90
5222;DHT22;2630;52.036;8.514;2023-03-20T05:07:51;8.80;99.90
5222;DHT22;2630;52.036;8.514;2023-03-20T05:10:17;8.90;99.90
5222;DHT22;2630;52.036;8.514;2023-03-20T05:12:43;8.80;99.90
5222;DHT22;2630;52.036;8.514;2023-03-20T05:15:09;8.80;99.90
5222;DHT22;2630;52.036;8.514;2023-03-20T05:17:34;8.80;99.90
5222;DHT22;2630;52.036;8.514;2023-03-20T05:20:00;8.80;99.90
5222;DHT22;2630;52.036;8.514;2023-03-20T05:22:25;8.70;99.90
5222;DHT22;2630;52.036;8.514;2023-03-20T05:24:51;8.80;99.90
5222;DHT22;2630;52.036;8.514;2023-03-20T05:27:17;8.80;99.90
5222;DHT22;2630;52.036;8.514;2023-03-20T05:29:43;8.70;99.90
5222;DHT22;2630;52.036;8.514;2023-03-20T05:34:34;8.80;99.90
5222;DHT22;2630;52.036;8.514;2023-03-20T05:37:00;8.80;99.90
5222;DHT22;2630;52.036;8.514;2023-03-20T05:39:26;8.80;99.90
5222;DHT22;2630;52.036;8.514;2023-03-20T05:41:51;8.80;99.90
5222;DHT22;2630;52.036;8.514;2023-03-20T05:44:17;8.80;99.90
5222;DHT22;2630;52.036;8.514;2023-03-20T05:46:42;8.70;99.90
5222;DHT22;2630;52.036;8.514;2023-03-20T05:49:08;8.70;99.90
5222;DHT22;2630;52.036;8.514;2023-03-20T05:51:33;8.60;99.90
5222;DHT22;2630;52.036;8.514;2023-03-20T05:53:59;8.70;99.90
5222;DHT22;2630;52.036;8.514;2023-03-20T05:56:25;8.60;99.90
5222;DHT22;2630;52.036;8.514;2023-03-20T05:58:52;8.70;99.90
5222;DHT22;2630;52.036;8.514;2023-03-20T06:01:17;8.70;99.90
5222;DHT22;2630;52.036;8.514;2023-03-20T06:03:46;8.60;99.90
5222;DHT22;2630;52.036;8.514;2023-03-20T06:06:13;8.70;99.90
5222;DHT22;2630;52.036;8.514;2023-03-20T06:08:39;8.70;99.90
5222;DHT22;2630;52.036;8.514;2023-03-20T06:11:05;8.80;99.90
5222;DHT22;2630;52.036;8.514;2023-03-20T06:13:31;8.80;99.90
5222;DHT22;2630;52.036;8.514;2023-03-20T06:15:57;8.90;99.90
5222;DHT22;2630;52.036;8.514;2023-03-20T06:18:22;8.90;99.90
5222;DHT22;2630;52.036;8.514;2023-03-20T06:20:52;8.80;99.90
5222;DHT22;2630;52.036;8.514;2023-03-20T06:23:18;8.80;99.90
5222;DHT22;2630;52.036;8.514;2023-03-20T06:25:43;8.80;99.90
5222;DHT22;2630;52.036;8.514;2023-03-20T06:28:09;8.80;99.90
5222;DHT22;2630;52.036;8.514;2023-03-20T06:30:35;8.80;99.90
5222;DHT22;2630;52.036;8.514;2023-03-20T06:33:01;8.90;99.90
5222;DHT22;2630;52.036;8.514;2023-03-20T06:35:27;8.90;99.90
5222;DHT22;2630;52.036;8.514;2023-03-20T06:45:13;8.80;99.90
5222;DHT22;2630;52.036;8.514;2023-03-20T06:52:31;8.90;99.90
5222;DHT22;2630;52.036;8.514;2023-03-20T06:54:56;8.90;99.90
5222;DHT22;2630;52.036;8.514;2023-03-20T06:59:48;9.00;99.90
5222;DHT22;2630;52.036;8.514;2023-03-20T07:04:41;9.20;99.90
5222;DHT22;2630;52.036;8.514;2023-03-20T07:07:07;9.20;99.90
5222;DHT22;2630;52.036;8.514;2023-03-20T07:09:33;9.20;99.90
5222;DHT22;2630;52.036;8.514;2023-03-20T07:11:59;9.20;99.90
5222;DHT22;2630;52.036;8.514;2023-03-20T07:14:25;9.30;99.90
5222;DHT22;2630;52.036;8.514;2023-03-20T07:16:50;9.30;99.90
5222;DHT22;2630;52.036;8.514;2023-03-20T07:19:17;9.20;99.90
5222;DHT22;2630;52.036;8.514;2023-03-20T07:21:43;9.10;99.90
5222;DHT22;2630;52.036;8.514;2023-03-20T07:24:15;9.30;99.90
5222;DHT22;2630;52.036;8.514;2023-03-20T07:26:41;9.20;99.90
5222;DHT22;2630;52.036;8.514;2023-03-20T07:29:07;9.30;99.90
5222;DHT22;2630;52.036;8.514;2023-03-20T07:36:24;9.40;99.90
5222;DHT22;2630;52.036;8.514;2023-03-20T07:38:50;9.50;99.90
5222;DHT22;2630;52.036;8.514;2023-03-20T07:41:15;9.60;99.90
5222;DHT22;2630;52.036;8.514;2023-03-20T07:46:08;9.80;99.90
5222;DHT22;2630;52.036;8.514;2023-03-20T07:48:34;9.80;99.90
5222;DHT22;2630;52.036;8.514;2023-03-20T07:51:00;9.90;99.90
5222;DHT22;2630;52.036;8.514;2023-03-20T07:53:26;10.00;99.90
5222;DHT22;2630;52.036;8.514;2023-03-20T07:55:52;10.00;99.90
5222;DHT22;2630;52.036;8.514;2023-03-20T08:00:43;9.90;99.90
5222;DHT22;2630;52.036;8.514;2023-03-20T08:03:09;10.00;99.90
5222;DHT22;2630;52.036;8.514;2023-03-20T08:05:35;10.10;99.90
5222;DHT22;2630;52.036;8.514;2023-03-20T08:08:01;10.20;99.90
5222;DHT22;2630;52.036;8.514;2023-03-20T08:12:53;10.20;99.90
5222;DHT22;2630;52.036;8.514;2023-03-20T08:15:18;10.30;99.90
5222;DHT22;2630;52.036;8.514;2023-03-20T08:17:45;10.20;99.90
5222;DHT22;2630;52.036;8.514;2023-03-20T08:22:39;10.40;99.90
5222;DHT22;2630;52.036;8.514;2023-03-20T08:27:33;10.50;99.90
5222;DHT22;2630;52.036;8.514;2023-03-20T08:32:24;10.70;99.90
5222;DHT22;2630;52.036;8.514;2023-03-20T08:34:51;10.80;99.90
5222;DHT22;2630;52.036;8.514;2023-03-20T08:37:16;10.90;99.90
5222;DHT22;2630;52.036;8.514;2023-03-20T08:47:00;11.10;99.90
5222;DHT22;2630;52.036;8.514;2023-03-20T08:49:27;11.30;99.90
5222;DHT22;2630;52.036;8.514;2023-03-20T08:51:52;11.40;99.90
5222;DHT22;2630;52.036;8.514;2023-03-20T08:54:18;11.70;99.90
5222;DHT22;2630;52.036;8.514;2023-03-20T08:56:44;11.80;99.90
5222;DHT22;2630;52.036;8.514;2023-03-20T08:59:10;11.80;99.90
5222;DHT22;2630;52.036;8.514;2023-03-20T09:01:37;11.80;99.90
5222;DHT22;2630;52.036;8.514;2023-03-20T09:04:03;11.90;99.90
5222;DHT22;2630;52.036;8.514;2023-03-20T09:06:28;11.90;99.90
5222;DHT22;2630;52.036;8.514;2023-03-20T09:11:22;11.60;99.90
5222;DHT22;2630;52.036;8.514;2023-03-20T09:16:13;11.20;99.90
5222;DHT22;2630;52.036;8.514;2023-03-20T09:18:39;11.10;99.90
5222;DHT22;2630;52.036;8.514;2023-03-20T09:23:31;11.00;99.90
5222;DHT22;2630;52.036;8.514;2023-03-20T09:25:57;11.00;99.90
5222;DHT22;2630;52.036;8.514;2023-03-20T09:30:48;10.90;99.90
5222;DHT22;2630;52.036;8.514;2023-03-20T09:33:14;10.90;99.90
5222;DHT22;2630;52.036;8.514;2023-03-20T09:35:40;10.80;99.90
5222;DHT22;2630;52.036;8.514;2023-03-20T09:38:06;10.70;99.90
5222;DHT22;2630;52.036;8.514;2023-03-20T09:40:52;10.70;99.90
5222;DHT22;2630;52.036;8.514;2023-03-20T09:43:43;10.70;99.90
5222;DHT22;2630;52.036;8.514;2023-03-20T09:51:37;11.00;99.90
5222;DHT22;2630;52.036;8.514;2023-03-20T09:54:17;11.30;99.90
5222;DHT22;2630;52.036;8.514;2023-03-20T09:56:46;11.30;99.90
5222;DHT22;2630;52.036;8.514;2023-03-20T09:59:13;11.30;99.90
5222;DHT22;2630;52.036;8.514;2023-03-20T10:04:10;11.60;99.90
5222;DHT22;2630;52.036;8.514;2023-03-20T10:06:36;11.60;99.90
5222;DHT22;2630;52.036;8.514;2023-03-20T10:09:22;11.60;99.90
5222;DHT22;2630;52.036;8.514;2023-03-20T10:11:53;11.40;99.90
5222;DHT22;2630;52.036;8.514;2023-03-20T10:20:03;11.20;99.90
5222;DHT22;2630;52.036;8.514;2023-03-20T10:22:36;11.40;99.90
5222;DHT22;2630;52.036;8.514;2023-03-20T10:25:07;11.30;99.90
5222;DHT22;2630;52.036;8.514;2023-03-20T10:27:43;11.40;99.90
5222;DHT22;2630;52.036;8.514;2023-03-20T10:35:44;11.30;99.90
5222;DHT22;2630;52.036;8.514;2023-03-20T10:38:22;11.10;99.90
5222;DHT22;2630;52.036;8.514;2023-03-20T10:40:52;11.00;99.90
5222;DHT22;2630;52.036;8.514;2023-03-20T10:43:33;11.10;99.90
5222;DHT22;2630;52.036;8.514;2023-03-20T10:46:13;11.20;99.90
5222;DHT22;2630;52.036;8.514;2023-03-20T10:51:15;11.40;99.90
5222;DHT22;2630;52.036;8.514;2023-03-20T10:53:47;11.60;99.90
5222;DHT22;2630;52.036;8.514;2023-03-20T10:58:58;11.80;99.90
5222;DHT22;2630;52.036;8.514;2023-03-20T11:12:16;12.20;99.90
5222;DHT22;2630;52.036;8.514;2023-03-20T11:17:11;12.00;99.90
5222;DHT22;2630;52.036;8.514;2023-03-20T11:19:38;12.10;99.90
5222;DHT22;2630;52.036;8.514;2023-03-20T11:22:25;12.20;99.90
5222;DHT22;2630;52.036;8.514;2023-03-20T11:24:57;12.40;99.90
5222;DHT22;2630;52.036;8.514;2023-03-20T11:27:28;12.50;99.90
5222;DHT22;2630;52.036;8.514;2023-03-20T11:29:54;12.60;99.90
5222;DHT22;2630;52.036;8.514;2023-03-20T11:32:30;12.40;99.90
5222;DHT22;2630;52.036;8.514;2023-03-20T11:35:09;12.30;99.90
5222;DHT22;2630;52.036;8.514;2023-03-20T11:37:35;12.30;99.90
5222;DHT22;2630;52.036;8.514;2023-03-20T11:43:10;12.80;99.90
5222;DHT22;2630;52.036;8.514;2023-03-20T11:45:53;13.00;99.90
5222;DHT22;2630;52.036;8.514;2023-03-20T11:48:35;13.30;99.90
5222;DHT22;2630;52.036;8.514;2023-03-20T11:51:14;13.60;99.90
5222;DHT22;2630;52.036;8.514;2023-03-20T11:56:29;13.40;99.90
5222;DHT22;2630;52.036;8.514;2023-03-20T11:59:08;13.60;99.90
5222;DHT22;2630;52.036;8.514;2023-03-20T12:01:46;13.50;99.90
5222;DHT22;2630;52.036;8.514;2023-03-20T12:04:17;13.50;99.90
5222;DHT22;2630;52.036;8.514;2023-03-20T12:07:33;13.80;99.90
5222;DHT22;2630;52.036;8.514;2023-03-20T12:15:07;13.30;99.90
5222;DHT22;2630;52.036;8.514;2023-03-20T12:17:41;12.90;99.90
5222;DHT22;2630;52.036;8.514;2023-03-20T12:35:51;12.00;99.90
5222;DHT22;2630;52.036;8.514;2023-03-20T12:41:07;11.70;99.90
5222;DHT22;2630;52.036;8.514;2023-03-20T12:44:03;11.90;99.90
5222;DHT22;2630;52.036;8.514;2023-03-20T12:52:21;12.40;99.90
5222;DHT22;2630;52.036;8.514;2023-03-20T12:55:24;12.40;99.90
5222;DHT22;2630;52.036;8.514;2023-03-20T12:58:00;12.40;99.90
5222;DHT22;2630;52.036;8.514;2023-03-20T13:00:41;12.20;99.90
5222;DHT22;2630;52.036;8.514;2023-03-20T13:03:25;11.90;99.90
5222;DHT22;2630;52.036;8.514;2023-03-20T13:06:13;11.70;99.90
5222;DHT22;2630;52.036;8.514;2023-03-20T13:09:16;11.60;99.90
5222;DHT22;2630;52.036;8.514;2023-03-20T13:14:38;11.50;99.90
5222;DHT22;2630;52.036;8.514;2023-03-20T13:28:04;11.50;99.90
5222;DHT22;2630;52.036;8.514;2023-03-20T13:30:40;11.50;99.90
5222;DHT22;2630;52.036;8.514;2023-03-20T13:36:14;11.40;99.90
5222;DHT22;2630;52.036;8.514;2023-03-20T13:38:47;11.40;99.90
5222;DHT22;2630;52.036;8.514;2023-03-20T13:41:15;11.30;99.90
5222;DHT22;2630;52.036;8.514;2023-03-20T13:43:50;11.20;99.90
5222;DHT22;2630;52.036;8.514;2023-03-20T13:46:27;11.30;99.90
5222;DHT22;2630;52.036;8.514;2023-03-20T13:48:55;11.40;99.90
5222;DHT22;2630;52.036;8.514;2023-03-20T13:51:30;11.40;99.90
5222;DHT22;2630;52.036;8.514;2023-03-20T13:54:36;11.40;99.90
5222;DHT22;2630;52.036;8.514;2023-03-20T14:05:44;11.30;99.90
5222;DHT22;2630;52.036;8.514;2023-03-20T14:13:53;11.30;99.90
5222;DHT22;2630;52.036;8.514;2023-03-20T14:16:20;11.20;99.90
5222;DHT22;2630;52.036;8.514;2023-03-20T14:21:23;11.30;99.90
5222;DHT22;2630;52.036;8.514;2023-03-20T14:23:51;11.30;99.90
5222;DHT22;2630;52.036;8.514;2023-03-20T14:26:25;11.30;99.90
5222;DHT22;2630;52.036;8.514;2023-03-20T14:28:59;11.20;99.90
5222;DHT22;2630;52.036;8.514;2023-03-20T14:31:31;11.10;99.90
5222;DHT22;2630;52.036;8.514;2023-03-20T14:36:56;11.00;99.90
5222;DHT22;2630;52.036;8.514;2023-03-20T14:42:41;10.80;99.90
5222;DHT22;2630;52.036;8.514;2023-03-20T14:47:50;10.60;99.90
5222;DHT22;2630;52.036;8.514;2023-03-20T14:53:20;10.40;99.90
5222;DHT22;2630;52.036;8.514;2023-03-20T14:59:04;10.40;99.90
5222;DHT22;2630;52.036;8.514;2023-03-20T15:01:43;10.50;99.90
5222;DHT22;2630;52.036;8.514;2023-03-20T15:11:41;10.70;99.90
5222;DHT22;2630;52.036;8.514;2023-03-20T15:14:07;10.60;99.90
5222;DHT22;2630;52.036;8.514;2023-03-20T15:16:36;10.60;99.90
5222;DHT22;2630;52.036;8.514;2023-03-20T15:19:17;10.50;99.90
5222;DHT22;2630;52.036;8.514;2023-03-20T15:21:44;10.50;99.90
5222;DHT22;2630;52.036;8.514;2023-03-20T15:24:21;10.50;99.90
5222;DHT22;2630;52.036;8.514;2023-03-20T15:26:55;10.40;99.90
5222;DHT22;2630;52.036;8.514;2023-03-20T15:29:22;10.10;99.90
5222;DHT22;2630;52.036;8.514;2023-03-20T15:31:56;10.00;99.90
5222;DHT22;2630;52.036;8.514;2023-03-20T15:34:27;9.90;99.90
5222;DHT22;2630;52.036;8.514;2023-03-20T15:36:56;10.00;99.90
5222;DHT22;2630;52.036;8.514;2023-03-20T15:39:27;9.90;99.90
5222;DHT22;2630;52.036;8.514;2023-03-20T15:41:58;9.90;99.90
5222;DHT22;2630;52.036;8.514;2023-03-20T15:44:33;9.80;99.90
5222;DHT22;2630;52.036;8.514;2023-03-20T15:47:02;9.90;99.90
5222;DHT22;2630;52.036;8.514;2023-03-20T15:49:30;9.90;99.90
5222;DHT22;2630;52.036;8.514;2023-03-20T15:54:24;9.90;99.90
5222;DHT22;2630;52.036;8.514;2023-03-20T15:56:52;9.90;99.90
5222;DHT22;2630;52.036;8.514;2023-03-20T15:59:21;10.00;99.90
5222;DHT22;2630;52.036;8.514;2023-03-20T16:01:50;9.90;99.90
5222;DHT22;2630;52.036;8.514;2023-03-20T16:04:17;9.90;99.90
5222;DHT22;2630;52.036;8.514;2023-03-20T16:06:46;9.70;99.90
5222;DHT22;2630;52.036;8.514;2023-03-20T16:09:13;9.70;99.90
5222;DHT22;2630;52.036;8.514;2023-03-20T16:11:42;9.80;99.90
5222;DHT22;2630;52.036;8.514;2023-03-20T16:14:15;9.80;99.90
5222;DHT22;2630;52.036;8.514;2023-03-20T16:16:41;9.80;99.90
5222;DHT22;2630;52.036;8.514;2023-03-20T16:19:11;9.80;99.90
5222;DHT22;2630;52.036;8.514;2023-03-20T16:21:39;9.80;99.90
5222;DHT22;2630;52.036;8.514;2023-03-20T16:24:13;9.80;99.90
5222;DHT22;2630;52.036;8.514;2023-03-20T16:26:43;9.70;99.90
5222;DHT22;2630;52.036;8.514;2023-03-20T16:31:57;9.60;99.90
5222;DHT22;2630;52.036;8.514;2023-03-20T16:34:26;9.60;99.90
5222;DHT22;2630;52.036;8.514;2023-03-20T16:36:58;9.60;99.90
5222;DHT22;2630;52.036;8.514;2023-03-20T16:39:28;9.50;99.90
5222;DHT22;2630;52.036;8.514;2023-03-20T16:42:08;9.40;99.90
5222;DHT22;2630;52.036;8.514;2023-03-20T16:47:20;9.40;99.90
5222;DHT22;2630;52.036;8.514;2023-03-20T16:50:03;9.40;99.90
5222;DHT22;2630;52.036;8.514;2023-03-20T16:52:31;9.40;99.90
5222;DHT22;2630;52.036;8.514;2023-03-20T16:57:27;9.40;99.90
5222;DHT22;2630;52.036;8.514;2023-03-20T17:02:34;9.30;99.90
5222;DHT22;2630;52.036;8.514;2023-03-20T17:05:04;9.30;99.90
5222;DHT22;2630;52.036;8.514;2023-03-20T17:07:31;9.20;99.90
5222;DHT22;2630;52.036;8.514;2023-03-20T17:12:26;9.20;99.90
5222;DHT22;2630;52.036;8.514;2023-03-20T17:14:52;9.20;99.90
5222;DHT22;2630;52.036;8.514;2023-03-20T17:17:21;9.20;99.90
5222;DHT22;2630;52.036;8.514;2023-03-20T17:19:48;9.30;99.90
5222;DHT22;2630;52.036;8.514;2023-03-20T17:27:24;9.20;99.90
5222;DHT22;2630;52.036;8.514;2023-03-20T17:29:51;9.20;99.90
5222;DHT22;2630;52.036;8.514;2023-03-20T17:32:20;9.10;99.90
5222;DHT22;2630;52.036;8.514;2023-03-20T17:34:48;9.10;99.90
5222;DHT22;2630;52.036;8.514;2023-03-20T17:37:20;9.20;99.90
5222;DHT22;2630;52.036;8.514;2023-03-20T17:39:46;9.10;99.90
5222;DHT22;2630;52.036;8.514;2023-03-20T17:42:21;9.10;99.90
5222;DHT22;2630;52.036;8.514;2023-03-20T17:44:48;9.00;99.90
5222;DHT22;2630;52.036;8.514;2023-03-20T17:47:20;8.90;99.90
5222;DHT22;2630;52.036;8.514;2023-03-20T17:49:46;8.90;99.90
5222;DHT22;2630;52.036;8.514;2023-03-20T17:54:39;8.80;99.90
5222;DHT22;2630;52.036;8.514;2023-03-20T17:57:08;8.80;99.90
5222;DHT22;2630;52.036;8.514;2023-03-20T18:02:00;8.70;99.90
5222;DHT22;2630;52.036;8.514;2023-03-20T18:04:26;8.70;99.90
5222;DHT22;2630;52.036;8.514;2023-03-20T18:06:51;8.60;99.90
5222;DHT22;2630;52.036;8.514;2023-03-20T18:09:17;8.60;99.90
5222;DHT22;2630;52.036;8.514;2023-03-20T18:11:43;8.60;99.90
5222;DHT22;2630;52.036;8.514;2023-03-20T18:14:08;8.60;99.90
5222;DHT22;2630;52.036;8.514;2023-03-20T18:21:28;8.60;99.90
5222;DHT22;2630;52.036;8.514;2023-03-20T18:23:54;8.60;99.90
5222;DHT22;2630;52.036;8.514;2023-03-20T18:26:22;8.60;99.90
5222;DHT22;2630;52.036;8.514;2023-03-20T18:28:49;8.60;99.90
5222;DHT22;2630;52.036;8.514;2023-03-20T18:31:15;8.60;99.90
5222;DHT22;2630;52.036;8.514;2023-03-20T18:33:51;8.60;99.90
5222;DHT22;2630;52.036;8.514;2023-03-20T18:36:19;8.50;99.90
5222;DHT22;2630;52.036;8.514;2023-03-20T18:41:12;8.60;99.90
5222;DHT22;2630;52.036;8.514;2023-03-20T18:43:39;8.60;99.90
5222;DHT22;2630;52.036;8.514;2023-03-20T18:46:05;8.50;99.90
5222;DHT22;2630;52.036;8.514;2023-03-20T18:48:31;8.50;99.90
5222;DHT22;2630;52.036;8.514;2023-03-20T18:50:57;8.40;99.90
5222;DHT22;2630;52.036;8.514;2023-03-20T18:53:28;8.50;99.90
5222;DHT22;2630;52.036;8.514;2023-03-20T18:58:23;8.40;99.90
5222;DHT22;2630;52.036;8.514;2023-03-20T19:00:50;8.40;99.90
5222;DHT22;2630;52.036;8.514;2023-03-20T19:08:14;8.10;99.90
5222;DHT22;2630;52.036;8.514;2023-03-20T19:10:41;8.10;99.90
5222;DHT22;2630;52.036;8.514;2023-03-20T19:15:35;8.00;99.90
5222;DHT22;2630;52.036;8.514;2023-03-20T19:18:15;8.00;99.90
5222;DHT22;2630;52.036;8.514;2023-03-20T19:20:43;7.90;99.90
5222;DHT22;2630;52.036;8.514;2023-03-20T19:23:11;8.00;99.90
5222;DHT22;2630;52.036;8.514;2023-03-20T19:25:38;7.90;99.90
5222;DHT22;2630;52.036;8.514;2023-03-20T19:28:04;7.90;99.90
5222;DHT22;2630;52.036;8.514;2023-03-20T19:30:37;7.80;99.90
5222;DHT22;2630;52.036;8.514;2023-03-20T19:33:05;7.80;99.90
5222;DHT22;2630;52.036;8.514;2023-03-20T19:35:32;7.80;99.90
5222;DHT22;2630;52.036;8.514;2023-03-20T19:37:58;7.80;99.90
5222;DHT22;2630;52.036;8.514;2023-03-20T19:40:33;7.80;99.90
5222;DHT22;2630;52.036;8.514;2023-03-20T19:43:00;7.80;99.90
5222;DHT22;2630;52.036;8.514;2023-03-20T19:45:28;7.80;99.90
5222;DHT22;2630;52.036;8.514;2023-03-20T19:50:30;7.70;99.90
5222;DHT22;2630;52.036;8.514;2023-03-20T19:52:58;7.70;99.90
5222;DHT22;2630;52.036;8.514;2023-03-20T19:55:25;7.70;99.90
5222;DHT22;2630;52.036;8.514;2023-03-20T19:57:50;7.70;99.90
5222;DHT22;2630;52.036;8.514;2023-03-20T20:00:18;7.70;99.90
5222;DHT22;2630;52.036;8.514;2023-03-20T20:02:44;7.60;99.90
5222;DHT22;2630;52.036;8.514;2023-03-20T20:05:28;7.70;99.90
5222;DHT22;2630;52.036;8.514;2023-03-20T20:07:56;7.70;99.90
5222;DHT22;2630;52.036;8.514;2023-03-20T20:10:28;7.70;99.90
5222;DHT22;2630;52.036;8.514;2023-03-20T20:15:22;7.80;99.90
5222;DHT22;2630;52.036;8.514;2023-03-20T20:17:48;7.80;99.90
5222;DHT22;2630;52.036;8.514;2023-03-20T20:20:16;7.80;99.90
5222;DHT22;2630;52.036;8.514;2023-03-20T20:22:43;7.90;99.90
5222;DHT22;2630;52.036;8.514;2023-03-20T20:25:10;8.00;99.90
5222;DHT22;2630;52.036;8.514;2023-03-20T20:27:37;8.00;99.90
5222;DHT22;2630;52.036;8.514;2023-03-20T20:34:57;8.00;99.90
5222;DHT22;2630;52.036;8.514;2023-03-20T20:37:23;8.00;99.90
5222;DHT22;2630;52.036;8.514;2023-03-20T20:42:15;8.10;99.90
5222;DHT22;2630;52.036;8.514;2023-03-20T20:44:42;8.10;99.90
5222;DHT22;2630;52.036;8.514;2023-03-20T20:47:08;8.10;99.90
5222;DHT22;2630;52.036;8.514;2023-03-20T20:49:34;8.10;99.90
5222;DHT22;2630;52.036;8.514;2023-03-20T20:51:59;8.00;99.90
5222;DHT22;2630;52.036;8.514;2023-03-20T20:54:25;8.00;99.90
5222;DHT22;2630;52.036;8.514;2023-03-20T20:59:18;8.10;99.90
5222;DHT22;2630;52.036;8.514;2023-03-20T21:01:44;8.10;99.90
5222;DHT22;2630;52.036;8.514;2023-03-20T21:04:10;8.10;99.90
5222;DHT22;2630;52.036;8.514;2023-03-20T21:09:02;8.10;99.90
5222;DHT22;2630;52.036;8.514;2023-03-20T21:11:28;8.20;99.90
5222;DHT22;2630;52.036;8.514;2023-03-20T21:13:54;8.20;99.90
5222;DHT22;2630;52.036;8.514;2023-03-20T21:16:20;8.20;99.90
5222;DHT22;2630;52.036;8.514;2023-03-20T21:21:12;8.20;99.90
5222;DHT22;2630;52.036;8.514;2023-03-20T21:33:24;8.20;99.90
5222;DHT22;2630;52.036;8.514;2023-03-20T21:35:51;8.20;99.90
5222;DHT22;2630;52.036;8.514;2023-03-20T21:38:18;8.20;99.90
5222;DHT22;2630;52.036;8.514;2023-03-20T21:40:44;8.20;99.90
5222;DHT22;2630;52.036;8.514;2023-03-20T21:43:11;8.30;99.90
5222;DHT22;2630;52.036;8.514;2023-03-20T21:45:37;8.30;99.90
5222;DHT22;2630;52.036;8.514;2023-03-20T21:50:29;8.40;99.90
5222;DHT22;2630;52.036;8.514;2023-03-20T21:52:56;8.50;99.90
5222;DHT22;2630;52.036;8.514;2023-03-20T21:55:22;8.50;99.90
5222;DHT22;2630;52.036;8.514;2023-03-20T21:57:47;8.40;99.90